Time;durP1;ratioP1;P1;durP2;ratioP2;P2;SDS_P1;SDS_P2;PMS_P1;PMS_P2;Temp;Humidity;BMP_temperature;BMP_pressure;BME280_temperature;BME280_humidity;BME280_pressure;Samples;Min_cycle;Max_cycle;Signal;HPM_P1;HPM_P2
2022/09/22 00:27:26;;;;;;;10.13;8.70;;;;;;;;;;5075670;28;20470;-50
2022/09/22 00:29:54;;;;;;;9.63;8.83;;;;;;;;;;5075927;28;20542;-55
2022/09/22 00:32:20;;;;;;;10.80;8.30;;;;;;;;;;5075791;28;20923;-55
2022/09/22 00:34:48;;;;;;;10.23;9.23;;;;;;;;;;5075529;28;20546;-53
2022/09/22 00:37:17;;;;;;;7.83;7.13;;;;;;;;;;5075451;28;20788;-54
2022/09/22 00:39:44;;;;;;;9.07;8.13;;;;;;;;;;5075170;28;20447;-53
2022/09/22 00:42:12;;;;;;;11.43;8.70;;;;;;;;;;5075272;28;20648;-54
2022/09/22 00:44:40;;;;;;;8.90;8.07;;;;;;;;;;5075558;28;20463;-55
2022/09/22 00:47:12;;;;;;;10.30;9.30;;;;;;;;;;5074359;28;20483;-53
2022/09/22 00:49:42;;;;;;;9.47;8.60;;;;;;;;;;5075294;28;20549;-53
2022/09/22 00:52:10;;;;;;;9.00;8.10;;;;;;;;;;5075080;28;20456;-51
2022/09/22 00:54:39;;;;;;;10.20;9.20;;;;;;;;;;5075053;28;20448;-53
2022/09/22 00:57:08;;;;;;;11.60;8.97;;;;;;;;;;5074713;28;20479;-52
2022/09/22 00:59:35;;;;;;;8.97;8.17;;;;;;;;;;5075051;28;20443;-55
2022/09/22 01:02:02;;;;;;;8.90;7.97;;;;;;;;;;5074986;28;20447;-53
2022/09/22 01:04:30;;;;;;;9.53;7.40;;;;;;;;;;5074907;28;20450;-53
2022/09/22 01:06:57;;;;;;;9.47;7.40;;;;;;;;;;5074639;28;20483;-55
2022/09/22 01:09:24;;;;;;;9.33;8.40;;;;;;;;;;5074598;28;20454;-54
2022/09/22 01:11:53;;;;;;;9.87;8.90;;;;;;;;;;5074498;28;20888;-55
2022/09/22 01:14:25;;;;;;;11.53;7.63;;;;;;;;;;5074728;28;20542;-54
2022/09/22 01:16:55;;;;;;;8.13;7.33;;;;;;;;;;5074543;28;20456;-51
2022/09/22 01:19:40;;;;;;;7.60;6.97;;;;;;;;;;5074541;28;20451;-52
2022/09/22 01:22:14;;;;;;;12.53;7.30;;;;;;;;;;5074314;28;20471;-52
2022/09/22 01:25:01;;;;;;;7.50;6.80;;;;;;;;;;5074602;28;20523;-53
2022/09/22 01:27:38;;;;;;;7.70;7.10;;;;;;;;;;5074382;28;20857;-53
2022/09/22 01:30:12;;;;;;;8.10;7.10;;;;;;;;;;5074556;28;20447;-53
2022/09/22 01:32:42;;;;;;;7.63;7.03;;;;;;;;;;5074160;28;20454;-54
2022/09/22 01:35:12;;;;;;;8.57;6.83;;;;;;;;;;5074322;28;20450;-54
2022/09/22 01:37:45;;;;;;;8.83;7.37;;;;;;;;;;5074179;28;20458;-54
2022/09/22 01:40:15;;;;;;;7.90;7.20;;;;;;;;;;5074134;28;20537;-51
2022/09/22 01:42:44;;;;;;;6.80;6.30;;;;;;;;;;5074004;28;20553;-53
2022/09/22 01:45:15;;;;;;;8.30;7.33;;;;;;;;;;5073885;28;20444;-51
2022/09/22 01:47:43;;;;;;;11.20;7.67;;;;;;;;;;5074055;28;20574;-53
2022/09/22 01:50:14;;;;;;;8.77;7.10;;;;;;;;;;5073826;28;21042;-52
2022/09/22 01:52:41;;;;;;;9.43;7.17;;;;;;;;;;5073893;28;20487;-53
2022/09/22 01:55:11;;;;;;;8.30;7.50;;;;;;;;;;5074156;28;20474;-51
2022/09/22 01:57:40;;;;;;;14.20;6.63;;;;;;;;;;5073597;28;20461;-52
2022/09/22 02:00:08;;;;;;;8.10;6.47;;;;;;;;;;5073779;28;20781;-53
2022/09/22 02:02:38;;;;;;;7.90;6.50;;;;;;;;;;5073946;28;20539;-51
2022/09/22 02:05:09;;;;;;;6.23;5.63;;;;;;;;;;5073501;28;20947;-49
2022/09/22 02:07:39;;;;;;;6.80;5.53;;;;;;;;;;5073432;28;20574;-50
2022/09/22 02:10:09;;;;;;;5.73;5.17;;;;;;;;;;5073346;28;20793;-54
2022/09/22 02:12:36;;;;;;;6.73;6.03;;;;;;;;;;5073569;28;20444;-53
2022/09/22 02:15:03;;;;;;;6.93;5.73;;;;;;;;;;5073562;28;20447;-51
2022/09/22 02:17:31;;;;;;;6.53;5.77;;;;;;;;;;5073260;28;20934;-53
2022/09/22 02:19:59;;;;;;;6.13;5.13;;;;;;;;;;5073726;28;20901;-53
2022/09/22 02:22:26;;;;;;;6.17;5.57;;;;;;;;;;5073248;28;20566;-54
2022/09/22 02:24:53;;;;;;;5.87;5.37;;;;;;;;;;5073431;28;20443;-54
2022/09/22 02:27:25;;;;;;;6.00;5.00;;;;;;;;;;5073300;28;20566;-49
2022/09/22 02:29:53;;;;;;;5.60;5.10;;;;;;;;;;5073360;28;20543;-49
2022/09/22 02:32:21;;;;;;;4.57;4.20;;;;;;;;;;5073451;28;20448;-52
2022/09/22 02:34:48;;;;;;;5.33;4.93;;;;;;;;;;5073112;28;20890;-50
2022/09/22 02:37:20;;;;;;;5.33;4.80;;;;;;;;;;5073010;28;20490;-51
2022/09/22 02:39:50;;;;;;;5.20;4.80;;;;;;;;;;5073142;28;20448;-52
2022/09/22 02:42:23;;;;;;;4.70;4.27;;;;;;;;;;5073130;28;20457;-51
2022/09/22 02:44:54;;;;;;;12.83;5.53;;;;;;;;;;5073118;28;20505;-50
2022/09/22 02:47:26;;;;;;;6.13;4.77;;;;;;;;;;5073132;28;20475;-49
2022/09/22 02:49:54;;;;;;;4.47;4.07;;;;;;;;;;5072846;28;20448;-50
2022/09/22 02:52:23;;;;;;;10.27;4.63;;;;;;;;;;5073004;28;20522;-53
2022/09/22 02:54:50;;;;;;;4.80;4.30;;;;;;;;;;5072974;28;20547;-49
2022/09/22 02:57:17;;;;;;;5.37;4.30;;;;;;;;;;5072759;28;20482;-50
2022/09/22 02:59:44;;;;;;;5.33;4.83;;;;;;;;;;5072788;28;20819;-51
2022/09/22 03:02:11;;;;;;;4.50;4.10;;;;;;;;;;5072682;28;20871;-50
2022/09/22 03:04:38;;;;;;;3.27;3.00;;;;;;;;;;5073012;28;20451;-51
2022/09/22 03:07:06;;;;;;;4.80;3.80;;;;;;;;;;5072734;28;20908;-49
2022/09/22 03:09:34;;;;;;;3.67;3.47;;;;;;;;;;5072767;28;20460;-51
2022/09/22 03:12:01;;;;;;;4.53;3.90;;;;;;;;;;5078985;28;20587;-49
2022/09/22 03:14:28;;;;;;;3.63;3.33;;;;;;;;;;5079250;28;20447;-48
2022/09/22 03:16:55;;;;;;;3.53;3.00;;;;;;;;;;5079237;28;20451;-51
2022/09/22 03:19:22;;;;;;;5.60;3.47;;;;;;;;;;5079423;28;20447;-52
2022/09/22 03:21:49;;;;;;;3.17;2.87;;;;;;;;;;5079255;28;20474;-48
2022/09/22 03:24:16;;;;;;;2.97;2.77;;;;;;;;;;5079305;28;20447;-51
2022/09/22 03:26:44;;;;;;;6.10;3.10;;;;;;;;;;5079360;28;20481;-53
2022/09/22 03:29:11;;;;;;;7.00;3.30;;;;;;;;;;5079485;28;20455;-53
2022/09/22 03:31:38;;;;;;;10.60;3.20;;;;;;;;;;5079356;28;20943;-54
2022/09/22 03:34:05;;;;;;;3.30;3.00;;;;;;;;;;5079400;28;20542;-53
2022/09/22 03:36:32;;;;;;;3.77;3.10;;;;;;;;;;5079237;28;20451;-54
2022/09/22 03:38:59;;;;;;;3.53;2.80;;;;;;;;;;5079127;28;20443;-50
2022/09/22 03:41:26;;;;;;;4.57;3.40;;;;;;;;;;5079038;28;20458;-50
2022/09/22 03:43:55;;;;;;;5.03;2.50;;;;;;;;;;5078876;28;20447;-50
2022/09/22 03:46:22;;;;;;;3.37;2.83;;;;;;;;;;5079057;28;20572;-49
2022/09/22 03:48:48;;;;;;;2.80;2.60;;;;;;;;;;5079016;28;20546;-52
2022/09/22 03:51:15;;;;;;;5.60;3.50;;;;;;;;;;5078900;28;20443;-50
2022/09/22 03:53:42;;;;;;;3.60;3.30;;;;;;;;;;5078879;28;20449;-55
2022/09/22 03:56:10;;;;;;;3.30;2.60;;;;;;;;;;5078870;28;20443;-49
2022/09/22 03:58:38;;;;;;;6.33;3.37;;;;;;;;;;5078783;28;21015;-50
2022/09/22 04:01:08;;;;;;;3.50;3.20;;;;;;;;;;5078932;28;20435;-51
2022/09/22 04:03:35;;;;;;;6.87;3.30;;;;;;;;;;5078852;28;20482;-49
2022/09/22 04:06:02;;;;;;;5.30;3.60;;;;;;;;;;5078829;28;20542;-50
2022/09/22 04:08:29;;;;;;;3.80;3.20;;;;;;;;;;5078686;28;20483;-50
2022/09/22 04:10:58;;;;;;;4.20;3.57;;;;;;;;;;5078763;28;20922;-49
2022/09/22 04:13:25;;;;;;;3.73;3.17;;;;;;;;;;5078904;28;20453;-51
2022/09/22 04:15:52;;;;;;;3.83;3.53;;;;;;;;;;5079165;28;20494;-50
2022/09/22 04:18:21;;;;;;;8.63;3.70;;;;;;;;;;5078776;28;20450;-51
2022/09/22 04:20:48;;;;;;;4.10;3.70;;;;;;;;;;5078536;28;20455;-51
2022/09/22 04:23:16;;;;;;;14.17;4.87;;;;;;;;;;5074680;28;20542;-53
2022/09/22 04:25:43;;;;;;;7.63;3.93;;;;;;;;;;5075287;28;20935;-53
2022/09/22 04:28:10;;;;;;;3.93;3.53;;;;;;;;;;5075470;28;20483;-50
2022/09/22 04:30:37;;;;;;;6.07;3.00;;;;;;;;;;5075439;28;20454;-53
2022/09/22 04:33:04;;;;;;;5.70;3.47;;;;;;;;;;5075348;28;20490;-49
2022/09/22 04:35:32;;;;;;;6.30;3.80;;;;;;;;;;5075253;28;20483;-50
2022/09/22 04:37:59;;;;;;;4.10;3.63;;;;;;;;;;5075219;28;20447;-50
2022/09/22 04:40:27;;;;;;;11.63;3.20;;;;;;;;;;5075330;28;20451;-50
2022/09/22 04:42:53;;;;;;;9.33;4.40;;;;;;;;;;5075272;28;20542;-52
2022/09/22 04:45:21;;;;;;;5.90;3.27;;;;;;;;;;5075382;28;20447;-51
2022/09/22 04:47:48;;;;;;;14.10;3.47;;;;;;;;;;5075188;28;20475;-50
2022/09/22 04:50:16;;;;;;;8.03;3.00;;;;;;;;;;5074792;28;20452;-51
2022/09/22 04:52:47;;;;;;;4.93;3.20;;;;;;;;;;5074815;28;20454;-50
2022/09/22 04:55:15;;;;;;;5.60;3.30;;;;;;;;;;5075056;28;20447;-54
2022/09/22 04:57:42;;;;;;;3.47;3.17;;;;;;;;;;5074967;28;20458;-51
2022/09/22 05:00:10;;;;;;;6.23;3.40;;;;;;;;;;5074946;28;20504;-51
2022/09/22 05:02:37;;;;;;;4.33;3.07;;;;;;;;;;5074618;28;21034;-54
2022/09/22 05:05:04;;;;;;;5.60;3.73;;;;;;;;;;5074588;28;20477;-53
2022/09/22 05:07:32;;;;;;;3.33;3.13;;;;;;;;;;5074720;28;20483;-54
2022/09/22 05:10:01;;;;;;;3.53;3.27;;;;;;;;;;5074653;28;20447;-54
2022/09/22 05:12:28;;;;;;;3.50;2.90;;;;;;;;;;5074894;28;20796;-55
2022/09/22 05:14:57;;;;;;;5.50;3.30;;;;;;;;;;5074493;28;20542;-51
2022/09/22 05:17:24;;;;;;;3.60;3.30;;;;;;;;;;5074341;28;20542;-53
2022/09/22 05:19:54;;;;;;;3.27;2.97;;;;;;;;;;5074323;28;20447;-53
2022/09/22 05:22:21;;;;;;;6.80;3.10;;;;;;;;;;5074160;28;20827;-51
2022/09/22 05:24:48;;;;;;;5.43;2.97;;;;;;;;;;5074348;28;20447;-50
2022/09/22 05:27:17;;;;;;;4.30;2.97;;;;;;;;;;5074169;28;20482;-55
2022/09/22 05:29:44;;;;;;;4.53;3.23;;;;;;;;;;5074202;28;20186;-51
2022/09/22 05:32:11;;;;;;;8.83;3.17;;;;;;;;;;5074089;28;20892;-54
2022/09/22 05:34:38;;;;;;;4.10;3.70;;;;;;;;;;5073928;28;20462;-52
2022/09/22 05:37:05;;;;;;;10.47;2.80;;;;;;;;;;5073990;28;20457;-50
2022/09/22 05:39:32;;;;;;;8.60;3.20;;;;;;;;;;5074081;28;20538;-52
2022/09/22 05:41:59;;;;;;;7.40;2.97;;;;;;;;;;5073900;28;20532;-52
2022/09/22 05:44:27;;;;;;;5.77;3.57;;;;;;;;;;5073743;28;20457;-52
2022/09/22 05:46:54;;;;;;;6.33;4.10;;;;;;;;;;5073668;28;20543;-51
2022/09/22 05:49:21;;;;;;;3.93;3.63;;;;;;;;;;5073945;28;20474;-52
2022/09/22 05:51:51;;;;;;;9.60;4.50;;;;;;;;;;5073761;28;20447;-52
2022/09/22 05:54:17;;;;;;;6.50;3.60;;;;;;;;;;5073729;28;20458;-51
2022/09/22 05:56:44;;;;;;;6.40;3.30;;;;;;;;;;5073624;28;20469;-50
2022/09/22 05:59:11;;;;;;;6.23;4.53;;;;;;;;;;5073761;28;20443;-51
2022/09/22 06:01:40;;;;;;;6.93;5.20;;;;;;;;;;5073714;28;20440;-50
2022/09/22 06:04:07;;;;;;;6.70;4.30;;;;;;;;;;5073702;28;20447;-51
2022/09/22 06:06:34;;;;;;;8.10;4.40;;;;;;;;;;5073524;28;20452;-53
2022/09/22 06:09:01;;;;;;;14.20;5.43;;;;;;;;;;5073361;28;20483;-50
2022/09/22 06:11:28;;;;;;;5.33;4.47;;;;;;;;;;5073197;28;20455;-53
2022/09/22 06:13:55;;;;;;;10.83;4.00;;;;;;;;;;5073284;28;20534;-50
2022/09/22 06:16:22;;;;;;;4.43;3.70;;;;;;;;;;5073368;28;20459;-51
2022/09/22 06:18:50;;;;;;;5.20;3.97;;;;;;;;;;5073393;28;20451;-50
2022/09/22 06:21:17;;;;;;;2.77;2.50;;;;;;;;;;5073131;28;20566;-55
2022/09/22 06:23:44;;;;;;;4.53;3.53;;;;;;;;;;5073246;28;20439;-55
2022/09/22 06:26:11;;;;;;;4.33;3.83;;;;;;;;;;5073306;28;20440;-55
2022/09/22 06:28:38;;;;;;;3.43;3.00;;;;;;;;;;5073065;28;20491;-54
2022/09/22 06:31:05;;;;;;;5.23;3.10;;;;;;;;;;5073181;28;20555;-54
2022/09/22 06:33:32;;;;;;;3.80;3.10;;;;;;;;;;5073124;28;20448;-53
2022/09/22 06:36:01;;;;;;;2.93;2.73;;;;;;;;;;5073082;28;20458;-55
2022/09/22 06:38:30;;;;;;;3.23;2.90;;;;;;;;;;5072780;28;20508;-56
2022/09/22 06:40:59;;;;;;;2.77;2.57;;;;;;;;;;5072848;28;20450;-55
2022/09/22 06:43:26;;;;;;;3.03;2.83;;;;;;;;;;5073079;28;20451;-56
2022/09/22 06:45:54;;;;;;;3.40;2.97;;;;;;;;;;5072287;28;20448;-53
2022/09/22 06:48:22;;;;;;;3.40;2.67;;;;;;;;;;5072827;28;20517;-56
2022/09/22 06:50:50;;;;;;;2.53;2.20;;;;;;;;;;5072857;28;20454;-53
2022/09/22 06:53:18;;;;;;;4.37;2.50;;;;;;;;;;5072673;28;20455;-53
2022/09/22 06:55:45;;;;;;;3.67;2.83;;;;;;;;;;5071870;28;20448;-54
2022/09/22 06:58:13;;;;;;;2.17;1.70;;;;;;;;;;5072649;28;20532;-56
2022/09/22 07:00:41;;;;;;;2.40;2.20;;;;;;;;;;5073524;28;20876;-56
2022/09/22 07:03:12;;;;;;;4.70;2.20;;;;;;;;;;5071036;28;20476;-56
2022/09/22 07:05:39;;;;;;;2.80;2.47;;;;;;;;;;5072447;28;20478;-57
2022/09/22 07:08:07;;;;;;;3.43;2.33;;;;;;;;;;5072417;28;20475;-57
2022/09/22 07:10:36;;;;;;;3.13;1.80;;;;;;;;;;5072796;28;20444;-57
2022/09/22 07:13:04;;;;;;;7.63;5.27;;;;;;;;;;5072136;28;20807;-56
2022/09/22 07:15:31;;;;;;;3.33;1.80;;;;;;;;;;5072165;28;20807;-56
2022/09/22 07:17:58;;;;;;;3.87;1.97;;;;;;;;;;5071885;28;20443;-57
2022/09/22 07:20:25;;;;;;;2.00;1.80;;;;;;;;;;5072064;28;20806;-59
2022/09/22 07:22:59;;;;;;;2.37;2.10;;;;;;;;;;5071334;28;20974;-51
2022/09/22 07:25:26;;;;;;;3.50;1.93;;;;;;;;;;5072878;28;20443;-54
2022/09/22 07:27:56;;;;;;;6.40;2.17;;;;;;;;;;5071837;28;20474;-51
2022/09/22 07:30:25;;;;;;;1.67;1.57;;;;;;;;;;5071913;28;20444;-57
2022/09/22 07:32:52;;;;;;;4.00;1.40;;;;;;;;;;5071755;28;20436;-54
2022/09/22 07:35:18;;;;;;;1.43;1.33;;;;;;;;;;5071669;28;20529;-51
2022/09/22 07:37:45;;;;;;;1.33;1.23;;;;;;;;;;5072092;28;20444;-52
2022/09/22 07:40:13;;;;;;;1.57;1.37;;;;;;;;;;5071888;28;20446;-50
2022/09/22 07:42:40;;;;;;;3.10;1.73;;;;;;;;;;5072078;28;20806;-51
2022/09/22 07:45:13;;;;;;;3.07;1.33;;;;;;;;;;5072177;28;20534;-59
2022/09/22 07:50:24;;;;;;;1.90;0.93;;;;;;;;;;5026887;28;20442;-51
2022/09/22 07:52:52;;;;;;;1.87;0.80;;;;;;;;;;5071815;28;20436;-51
2022/09/22 07:55:22;;;;;;;1.10;1.00;;;;;;;;;;5071733;28;20458;-51
2022/09/22 07:57:53;;;;;;;1.40;1.10;;;;;;;;;;5074562;28;20458;-52
2022/09/22 08:00:22;;;;;;;1.43;1.03;;;;;;;;;;5075735;28;20479;-52
2022/09/22 08:02:54;;;;;;;1.43;0.87;;;;;;;;;;5075570;28;20934;-54
2022/09/22 08:05:21;;;;;;;1.23;1.00;;;;;;;;;;5075906;28;20447;-56
2022/09/22 08:07:47;;;;;;;1.37;1.27;;;;;;;;;;5074925;28;20759;-51
2022/09/22 08:10:15;;;;;;;1.90;1.13;;;;;;;;;;5075399;28;20483;-50
2022/09/22 08:12:42;;;;;;;1.63;1.10;;;;;;;;;;5075609;28;20455;-53
2022/09/22 08:15:10;;;;;;;2.70;1.20;;;;;;;;;;5075755;28;20518;-50
2022/09/22 08:17:38;;;;;;;2.07;1.07;;;;;;;;;;5075553;28;20539;-55
2022/09/22 08:20:06;;;;;;;2.13;1.07;;;;;;;;;;5075439;28;20454;-55
2022/09/22 08:22:33;;;;;;;1.33;1.10;;;;;;;;;;5075125;28;20558;-51
2022/09/22 08:25:00;;;;;;;1.57;0.70;;;;;;;;;;5075283;28;20501;-55
2022/09/22 08:27:28;;;;;;;1.57;1.30;;;;;;;;;;5075425;28;20538;-53
2022/09/22 08:29:55;;;;;;;1.00;0.90;;;;;;;;;;5075465;28;20483;-52
2022/09/22 08:32:25;;;;;;;1.17;1.00;;;;;;;;;;5075255;28;20451;-52
2022/09/22 08:34:56;;;;;;;1.20;0.80;;;;;;;;;;5074837;28;20444;-59
2022/09/22 08:37:26;;;;;;;1.57;0.77;;;;;;;;;;5075050;28;20466;-54
2022/09/22 08:39:53;;;;;;;1.33;1.00;;;;;;;;;;5074531;28;20444;-54
2022/09/22 08:42:21;;;;;;;2.90;1.00;;;;;;;;;;5075168;28;20451;-56
2022/09/22 08:44:52;;;;;;;1.67;0.87;;;;;;;;;;5074644;28;20513;-56
2022/09/22 08:51:50;;;;;;;3.03;1.73;;;;;;;;;;5074744;28;20450;-57
2022/09/22 08:53:04;;;;;;;1.03;0.93;;;;;;;;;;5073287;28;20460;-59
2022/09/22 08:55:31;;;;;;;0.97;0.87;;;;;;;;;;5074463;28;20447;-60
2022/09/22 08:58:02;;;;;;;0.83;0.70;;;;;;;;;;5073903;28;20535;-59
2022/09/22 09:00:33;;;;;;;0.90;0.70;;;;;;;;;;5073893;28;20452;-59
2022/09/22 09:03:05;;;;;;;2.03;1.33;;;;;;;;;;5074782;28;20795;-59
2022/09/22 09:05:48;;;;;;;0.90;0.60;;;;;;;;;;5073848;28;20803;-52
2022/09/22 09:08:21;;;;;;;0.83;0.83;;;;;;;;;;5073308;28;20497;-54
2022/09/22 09:10:54;;;;;;;1.93;0.90;;;;;;;;;;5072264;28;20451;-54
2022/09/22 09:13:27;;;;;;;0.90;0.70;;;;;;;;;;5074557;28;20795;-54
2022/09/22 09:16:03;;;;;;;2.47;0.90;;;;;;;;;;5074547;28;20451;-51
2022/09/22 09:18:32;;;;;;;0.90;0.70;;;;;;;;;;5074594;28;20443;-51
2022/09/22 09:21:01;;;;;;;1.20;0.80;;;;;;;;;;5073948;28;20458;-57
2022/09/22 09:23:32;;;;;;;1.00;0.90;;;;;;;;;;5074152;28;20203;-59
2022/09/22 09:25:59;;;;;;;1.83;0.83;;;;;;;;;;5074320;28;20447;-58
2022/09/22 09:28:32;;;;;;;1.00;0.70;;;;;;;;;;5074031;28;20477;-57
2022/09/22 09:31:06;;;;;;;1.00;0.70;;;;;;;;;;5074172;28;20534;-56
2022/09/22 09:33:39;;;;;;;1.70;0.90;;;;;;;;;;5070601;28;20450;-52
2022/09/22 09:36:13;;;;;;;2.20;0.90;;;;;;;;;;5073617;28;20451;-56
2022/09/22 09:38:43;;;;;;;5.70;0.90;;;;;;;;;;5073736;28;20530;-57
2022/09/22 09:41:13;;;;;;;1.20;0.70;;;;;;;;;;5072617;28;20526;-58
2022/09/22 09:43:41;;;;;;;1.87;0.80;;;;;;;;;;5072961;28;20946;-58
2022/09/22 09:46:13;;;;;;;0.70;0.60;;;;;;;;;;5073827;28;20497;-58
2022/09/22 09:48:44;;;;;;;1.73;1.43;;;;;;;;;;5073528;28;20563;-57
2022/09/22 09:51:13;;;;;;;1.23;0.70;;;;;;;;;;5073620;28;20523;-58
2022/09/22 09:53:42;;;;;;;1.00;0.80;;;;;;;;;;5073519;28;20486;-59
2022/09/22 09:56:17;;;;;;;2.27;1.07;;;;;;;;;;5073634;28;20495;-56
2022/09/22 10:01:41;;;;;;;1.00;0.90;;;;;;;;;;5073465;28;20803;-51
2022/09/22 10:04:18;;;;;;;0.77;0.70;;;;;;;;;;5073399;28;20474;-52
2022/09/22 10:06:46;;;;;;;1.10;0.80;;;;;;;;;;5073648;28;20458;-57
2022/09/22 10:09:23;;;;;;;5.07;1.10;;;;;;;;;;5072842;28;20479;-57
2022/09/22 10:11:58;;;;;;;1.23;0.90;;;;;;;;;;5072884;28;20788;-58
2022/09/22 10:14:26;;;;;;;0.83;0.70;;;;;;;;;;5072665;28;20831;-53
2022/09/22 10:16:53;;;;;;;1.00;0.70;;;;;;;;;;5072716;28;20447;-49
2022/09/22 10:19:22;;;;;;;0.80;0.73;;;;;;;;;;5072777;28;20444;-52
2022/09/22 10:21:51;;;;;;;0.97;0.80;;;;;;;;;;5071686;28;20471;-51
2022/09/22 10:24:31;;;;;;;1.87;1.23;;;;;;;;;;5072709;28;20443;-55
2022/09/22 10:26:58;;;;;;;1.47;0.70;;;;;;;;;;5070065;28;20850;-50
2022/09/22 10:29:26;;;;;;;2.93;0.80;;;;;;;;;;5072600;28;21008;-52
2022/09/22 10:32:05;;;;;;;1.65;0.85;;;;;;;;;;5072557;28;20455;-52
2022/09/22 10:34:33;;;;;;;0.80;0.77;;;;;;;;;;5072905;28;20320;-55
2022/09/22 10:37:02;;;;;;;4.20;1.00;;;;;;;;;;5072947;28;20447;-54
2022/09/22 10:39:33;;;;;;;5.10;1.60;;;;;;;;;;5072775;28;20454;-56
2022/09/22 10:42:02;;;;;;;1.00;0.90;;;;;;;;;;5073058;28;20802;-52
2022/09/22 10:44:30;;;;;;;0.97;0.70;;;;;;;;;;5072838;28;20475;-54
2022/09/22 10:47:05;;;;;;;1.13;0.60;;;;;;;;;;5071356;28;20440;-53
2022/09/22 10:49:40;;;;;;;1.10;0.73;;;;;;;;;;5071346;28;20479;-57
2022/09/22 10:52:12;;;;;;;1.70;1.00;;;;;;;;;;5072439;28;20526;-52
2022/09/22 10:54:45;;;;;;;2.83;1.13;;;;;;;;;;5072835;28;20538;-55
2022/09/22 10:57:17;;;;;;;1.57;0.80;;;;;;;;;;5072540;28;20470;-52
2022/09/22 11:00:03;;;;;;;0.90;0.70;;;;;;;;;;5072899;28;20469;-51
2022/09/22 11:02:58;;;;;;;4.60;2.23;;;;;;;;;;5072118;28;20450;-53
2022/09/22 11:13:56;;;;;;;0.87;0.57;;;;;;;;;;5072457;28;20984;-56
2022/09/22 11:16:34;;;;;;;1.00;0.80;;;;;;;;;;5071699;28;20450;-60
2022/09/22 11:19:12;;;;;;;1.17;0.83;;;;;;;;;;5070133;28;20462;-59
2022/09/22 11:21:46;;;;;;;6.83;1.50;;;;;;;;;;5069759;28;20466;-60
2022/09/22 11:24:28;;;;;;;0.97;0.70;;;;;;;;;;5070503;28;20895;-59
2022/09/22 11:26:55;;;;;;;1.00;0.80;;;;;;;;;;5059083;28;20447;-59
2022/09/22 11:29:30;;;;;;;1.37;0.90;;;;;;;;;;5072383;28;20497;-59
2022/09/22 11:32:01;;;;;;;0.80;0.60;;;;;;;;;;5073844;28;20457;-54
2022/09/22 11:34:36;;;;;;;1.80;0.90;;;;;;;;;;5076310;28;20447;-55
2022/09/22 11:37:24;;;;;;;3.03;1.00;;;;;;;;;;5076608;28;20541;-66
2022/09/22 11:39:56;;;;;;;1.07;0.97;;;;;;;;;;5076416;28;20965;-64
2022/09/22 11:42:28;;;;;;;1.10;0.90;;;;;;;;;;5076206;28;20444;-64
2022/09/22 11:44:59;;;;;;;1.00;0.80;;;;;;;;;;5076183;28;20449;-62
2022/09/22 11:47:43;;;;;;;1.00;0.60;;;;;;;;;;5076443;28;20441;-63
2022/09/22 11:50:20;;;;;;;5.93;0.80;;;;;;;;;;5076222;28;20489;-64
2022/09/22 11:52:54;;;;;;;0.90;0.80;;;;;;;;;;5075958;28;20451;-61
2022/09/22 11:55:28;;;;;;;0.70;0.60;;;;;;;;;;5076016;28;20816;-62
2022/09/22 11:57:57;;;;;;;3.10;1.30;;;;;;;;;;5076135;28;20814;-61
2022/09/22 12:00:24;;;;;;;1.13;0.80;;;;;;;;;;5075589;28;20443;-62
2022/09/22 12:02:55;;;;;;;0.80;0.70;;;;;;;;;;5075356;28;20962;-54
2022/09/22 12:05:25;;;;;;;1.13;0.70;;;;;;;;;;5075793;28;20533;-54
2022/09/22 12:07:55;;;;;;;2.10;0.60;;;;;;;;;;5075704;28;20443;-54
2022/09/22 12:10:26;;;;;;;1.10;0.70;;;;;;;;;;5075722;28;20483;-51
2022/09/22 12:12:55;;;;;;;3.00;0.93;;;;;;;;;;5075971;28;20447;-51
2022/09/22 12:15:28;;;;;;;1.07;0.80;;;;;;;;;;5075633;28;20947;-52
2022/09/22 12:17:59;;;;;;;3.10;0.63;;;;;;;;;;5075673;28;20447;-54
2022/09/22 12:20:40;;;;;;;0.70;0.70;;;;;;;;;;5075335;28;20451;-52
2022/09/22 12:23:17;;;;;;;1.23;0.60;;;;;;;;;;5075274;28;20530;-55
2022/09/22 12:25:50;;;;;;;0.70;0.60;;;;;;;;;;5074272;28;20446;-55
2022/09/22 12:28:18;;;;;;;0.73;0.60;;;;;;;;;;5074870;28;20466;-53
2022/09/22 12:31:00;;;;;;;1.73;0.70;;;;;;;;;;5074702;28;20485;-57
2022/09/22 12:33:27;;;;;;;0.70;0.60;;;;;;;;;;5072550;28;20443;-57
2022/09/22 12:35:55;;;;;;;1.07;0.70;;;;;;;;;;5074783;28;20447;-54
2022/09/22 12:38:22;;;;;;;0.80;0.60;;;;;;;;;;5074647;28;20772;-56
2022/09/22 12:40:51;;;;;;;2.83;0.80;;;;;;;;;;5074508;28;20542;-56
2022/09/22 12:43:20;;;;;;;1.47;0.60;;;;;;;;;;5073243;28;20447;-56
2022/09/22 12:45:48;;;;;;;1.43;0.67;;;;;;;;;;5071981;28;20454;-55
2022/09/22 12:48:16;;;;;;;0.80;0.70;;;;;;;;;;5074577;28;20803;-56
2022/09/22 12:50:44;;;;;;;0.70;0.70;;;;;;;;;;5074180;28;20850;-51
2022/09/22 12:53:23;;;;;;;0.80;0.60;;;;;;;;;;5074376;28;20440;-54
2022/09/22 12:55:52;;;;;;;1.07;0.60;;;;;;;;;;5072339;28;20475;-53
2022/09/22 12:58:52;;;;;;;0.97;0.60;;;;;;;;;;5072185;28;20518;-53
2022/09/22 13:01:33;;;;;;;0.90;0.70;;;;;;;;;;4988111;28;20468;-56
2022/09/22 13:04:06;;;;;;;2.40;0.70;;;;;;;;;;4982316;28;20535;-54
2022/09/22 13:06:50;;;;;;;0.90;0.70;;;;;;;;;;5034282;28;20458;-55
2022/09/22 13:09:20;;;;;;;1.73;0.73;;;;;;;;;;5074006;28;20471;-55
2022/09/22 13:12:21;;;;;;;1.73;0.67;;;;;;;;;;5073983;28;20976;-56
2022/09/22 13:15:11;;;;;;;3.90;1.67;;;;;;;;;;5072781;28;20926;-54
2022/09/22 13:17:41;;;;;;;0.90;0.73;;;;;;;;;;5071545;28;20447;-55
2022/09/22 13:20:15;;;;;;;0.90;0.80;;;;;;;;;;5074405;28;20447;-55
2022/09/22 13:22:43;;;;;;;1.43;0.70;;;;;;;;;;5074101;28;20478;-50
2022/09/22 13:25:20;;;;;;;0.70;0.60;;;;;;;;;;5073977;28;20451;-56
2022/09/22 13:27:50;;;;;;;0.77;0.60;;;;;;;;;;5074315;28;20450;-55
2022/09/22 13:30:17;;;;;;;1.67;0.70;;;;;;;;;;5074129;28;20490;-57
2022/09/22 13:32:50;;;;;;;0.80;0.60;;;;;;;;;;5074116;28;20444;-56
2022/09/22 13:35:27;;;;;;;1.00;0.80;;;;;;;;;;5073742;28;20445;-53
2022/09/22 13:37:55;;;;;;;1.10;0.67;;;;;;;;;;5074217;28;20453;-58
2022/09/22 13:40:25;;;;;;;1.10;0.70;;;;;;;;;;5074091;28;20447;-55
2022/09/22 13:42:54;;;;;;;0.60;0.50;;;;;;;;;;5074188;28;20470;-55
2022/09/22 13:45:24;;;;;;;1.23;0.60;;;;;;;;;;5073886;28;20443;-55
2022/09/22 13:47:54;;;;;;;0.60;0.50;;;;;;;;;;5073625;28;20530;-56
2022/09/22 13:50:22;;;;;;;1.83;1.73;;;;;;;;;;5073853;28;20489;-55
2022/09/22 13:52:50;;;;;;;2.20;0.70;;;;;;;;;;5073938;28;20547;-56
2022/09/22 13:55:19;;;;;;;0.90;0.57;;;;;;;;;;5073556;28;20447;-55
2022/09/22 13:57:46;;;;;;;0.67;0.60;;;;;;;;;;5073691;28;20447;-55
2022/09/22 14:00:23;;;;;;;1.17;0.70;;;;;;;;;;5073682;28;20451;-52
2022/09/22 14:02:50;;;;;;;0.60;0.50;;;;;;;;;;5073688;28;20447;-56
2022/09/22 14:05:19;;;;;;;1.70;0.90;;;;;;;;;;5073597;28;20814;-55
2022/09/22 14:07:46;;;;;;;1.67;0.67;;;;;;;;;;5073469;28;20509;-55
2022/09/22 14:10:16;;;;;;;1.50;1.20;;;;;;;;;;5073371;28;20981;-56
2022/09/22 14:12:43;;;;;;;2.50;1.30;;;;;;;;;;5073394;28;20861;-56
2022/09/22 14:15:25;;;;;;;3.00;1.20;;;;;;;;;;5072991;28;20989;-55
2022/09/22 14:17:54;;;;;;;1.47;1.17;;;;;;;;;;5072889;28;20539;-57
2022/09/22 14:20:21;;;;;;;2.10;1.37;;;;;;;;;;5073229;28;20803;-55
2022/09/22 14:22:48;;;;;;;1.63;1.00;;;;;;;;;;5073182;28;20887;-56
2022/09/22 14:25:16;;;;;;;1.40;0.97;;;;;;;;;;5072867;28;20803;-56
2022/09/22 14:27:46;;;;;;;1.43;0.90;;;;;;;;;;5073030;28;20471;-55
2022/09/22 14:30:15;;;;;;;0.90;0.70;;;;;;;;;;5073150;28;20498;-55
2022/09/22 14:32:44;;;;;;;0.90;0.70;;;;;;;;;;5072966;28;20540;-55
2022/09/22 14:35:22;;;;;;;2.07;0.87;;;;;;;;;;5072999;28;20879;-53
2022/09/22 14:37:49;;;;;;;1.10;0.60;;;;;;;;;;5073031;28;20526;-55
2022/09/22 14:40:18;;;;;;;0.60;0.60;;;;;;;;;;5072963;28;20457;-51
2022/09/22 14:42:56;;;;;;;1.00;0.60;;;;;;;;;;5072995;28;20444;-51
2022/09/22 14:45:26;;;;;;;0.80;0.60;;;;;;;;;;5072961;28;20841;-54
2022/09/22 14:48:11;;;;;;;1.00;0.60;;;;;;;;;;5072894;28;20875;-55
2022/09/22 14:50:44;;;;;;;0.80;0.50;;;;;;;;;;5072681;28;20509;-53
2022/09/22 14:53:14;;;;;;;0.80;0.70;;;;;;;;;;5072907;28;20447;-56
2022/09/22 14:55:43;;;;;;;0.80;0.60;;;;;;;;;;5072810;28;20950;-53
2022/09/22 14:58:16;;;;;;;1.47;0.70;;;;;;;;;;5072722;28;20477;-50
2022/09/22 15:03:37;;;;;;;1.43;0.60;;;;;;;;;;5072533;28;20446;-54
2022/09/22 15:06:09;;;;;;;3.17;0.97;;;;;;;;;;5072285;28;20451;-51
2022/09/22 15:08:36;;;;;;;2.30;1.73;;;;;;;;;;5073220;28;20447;-55
2022/09/22 15:11:04;;;;;;;1.87;1.77;;;;;;;;;;5072495;28;20971;-52
2022/09/22 15:13:37;;;;;;;2.27;2.07;;;;;;;;;;5072410;28;20874;-54
2022/09/22 15:16:05;;;;;;;5.00;3.20;;;;;;;;;;5072640;28;20463;-53
2022/09/22 15:18:31;;;;;;;10.40;9.60;;;;;;;;;;5072600;28;20546;-52
2022/09/22 15:20:59;;;;;;;7.60;7.10;;;;;;;;;;5072689;28;20483;-55
2022/09/22 15:23:30;;;;;;;8.30;7.60;;;;;;;;;;5072680;28;20872;-55
2022/09/22 15:26:00;;;;;;;7.00;6.40;;;;;;;;;;5072390;28;20458;-52
2022/09/22 15:28:27;;;;;;;13.73;10.60;;;;;;;;;;5072603;28;20452;-54
2022/09/22 15:30:55;;;;;;;9.17;6.07;;;;;;;;;;5072737;28;20493;-54
2022/09/22 15:33:22;;;;;;;8.60;6.40;;;;;;;;;;5072801;28;20443;-52
2022/09/22 15:35:50;;;;;;;9.13;8.23;;;;;;;;;;5072663;28;20455;-51
2022/09/22 15:38:19;;;;;;;20.63;18.83;;;;;;;;;;5072391;28;20542;-49
2022/09/22 15:40:48;;;;;;;9.53;8.63;;;;;;;;;;5072508;28;20444;-53
2022/09/22 15:43:18;;;;;;;16.83;15.43;;;;;;;;;;5072428;28;20530;-54
2022/09/22 15:45:47;;;;;;;11.40;10.50;;;;;;;;;;5072358;28;20508;-56